Genesis Glory — WDG9354 — position and weather

sailwx.info

Track history (hours):
 
Tides and Currents Weather Stations Pressure Air Temp Water Temp Dewpoint Dewpoint Depression Visibility Wind Speed Wind Dir Waves Ship Positions

Genesis Glory

Owner: Genesis Marine, LLC, Houston, TX. More information available from US FCC via Universal Licensing System and Coast Guard Vessel Documentation Center.

Last reported at 2017-Nov-17 18:21 UTC. Time now 2017-Nov-18 11:49 UTC.
Position N 41°10' W 072°22'.

Length 36 m; draft 4.9 m.

Type: Towing. MMSI: 367586910.

Date/timePositionNaut miles runAvg speedWind from/ knotsBaromVisibWave heightAir tempDewpointWater temp
2017-Nov-17 18:21N 41°10' W 072°22'6 9.5
2017-Nov-17 17:45N 41°08' W 072°29'59 7.0
2017-Nov-17 09:23N 40°53' W 073°44'3 8.9
2017-Nov-17 09:00N 40°50' W 073°47'3 6.8
2017-Nov-17 08:30N 40°48' W 073°50'4 7.1
2017-Nov-17 08:00N 40°47' W 073°55'3 5.4
2017-Nov-17 07:30N 40°46' W 073°57'3 6.3
2017-Nov-17 07:00N 40°43' W 073°59'3 6.3
2017-Nov-17 06:30N 40°41' W 074°02'2 3.9
2017-Nov-17 06:00N 40°39' W 074°03'0 0.1
2017-Nov-17 05:30N 40°39' W 074°03'0 0.1
2017-Nov-17 05:00N 40°39' W 074°03'0 0.0
2017-Nov-17 04:30N 40°39' W 074°03'0 0.0
2017-Nov-17 04:00N 40°39' W 074°03'0 0.0
2017-Nov-17 03:30N 40°39' W 074°03'0 0.1
2017-Nov-17 03:00N 40°39' W 074°03'0 0.0
2017-Nov-17 02:30N 40°39' W 074°03'0 0.9
2017-Nov-17 02:00N 40°39' W 074°03'3 6.7
2017-Nov-17 01:30N 40°39' W 074°07'2 4.9
2017-Nov-17 01:00N 40°41' W 074°08'1 2.6
2017-Nov-17 00:30N 40°42' W 074°09'0 0.0
2017-Nov-17 00:00N 40°42' W 074°09'0 0.0
2017-Nov-16 23:30N 40°42' W 074°09'0 0.0
2017-Nov-16 23:00N 40°42' W 074°09'0 0.0
2017-Nov-16 22:30N 40°42' W 074°09'0 0.0
2017-Nov-16 22:00N 40°42' W 074°09'3 5.5
2017-Nov-16 21:30N 40°39' W 074°09'2 3.1
2017-Nov-16 21:00N 40°39' W 074°07'0 0.0
2017-Nov-16 20:30N 40°39' W 074°07'0 0.0
2017-Nov-16 20:00N 40°39' W 074°07'0 0.0
2017-Nov-16 19:30N 40°39' W 074°07'0 0.0
2017-Nov-16 19:00N 40°39' W 074°07'0 0.0
2017-Nov-16 18:30N 40°39' W 074°07'2 3.4
2017-Nov-16 18:00N 40°39' W 074°09'2 4.5
2017-Nov-16 17:30N 40°39' W 074°06'4 7.9
2017-Nov-16 17:00N 40°36' W 074°02'5 9.6
2017-Nov-16 16:30N 40°32' W 074°01'4010.7
2017-Nov-16 12:43N 39°51' W 074°01'312.1
2017-Nov-16 12:30N 39°48' W 074°01'612.2
2017-Nov-16 11:58N 39°42' W 074°04'612.5
2017-Nov-16 11:28N 39°37' W 074°07'60 9.2
2017-Nov-16 04:59N 39°02' W 075°09'713.7
2017-Nov-16 04:30N 39°07' W 075°13'713.6
2017-Nov-16 04:00N 39°13' W 075°18'612.9
2017-Nov-16 03:30N 39°18' W 075°23'612.1
2017-Nov-16 03:00N 39°23' W 075°28'611.6
2017-Nov-16 02:30N 39°27' W 075°33'510.6
2017-Nov-16 02:00N 39°32' W 075°33'510.3
2017-Nov-16 01:30N 39°37' W 075°35'510.2
2017-Nov-16 01:01N 39°41' W 075°31'5 9.6
2017-Nov-16 00:30N 39°46' W 075°29'3 6.1
2017-Nov-16 00:00N 39°48' W 075°26'5 9.7
2017-Nov-15 23:30N 39°51' W 075°21'5 9.8
2017-Nov-15 23:01N 39°51' W 075°14'3 6.6
2017-Nov-15 22:31N 39°53' W 075°11'0 0.0
2017-Nov-15 22:00N 39°53' W 075°11'0 0.0
2017-Nov-15 21:31N 39°53' W 075°11'0 0.2
2017-Nov-15 21:00N 39°53' W 075°11'0 0.0
2017-Nov-15 20:31N 39°53' W 075°11'1 1.3
2017-Nov-15 20:00N 39°54' W 075°12'0 0.0
2017-Nov-15 19:30N 39°54' W 075°12'0 0.0
2017-Nov-15 19:00N 39°54' W 075°12'0 0.0
2017-Nov-15 18:30N 39°54' W 075°12'0 0.1
2017-Nov-15 18:00N 39°53' W 075°12'0 0.0
2017-Nov-15 17:30N 39°54' W 075°12'0 0.0
2017-Nov-15 17:00N 39°54' W 075°12'0 0.0
2017-Nov-15 16:30N 39°54' W 075°12'0 0.0
2017-Nov-15 16:00N 39°54' W 075°12'0 0.0
2017-Nov-15 15:30N 39°53' W 075°12'0 0.0
2017-Nov-15 15:00N 39°54' W 075°12'0 0.0
2017-Nov-15 14:30N 39°54' W 075°12'0 0.0
2017-Nov-15 14:00N 39°54' W 075°12'0 0.0
2017-Nov-15 13:30N 39°54' W 075°12'0 0.0
2017-Nov-15 13:00N 39°54' W 075°12'0 0.0
2017-Nov-15 12:30N 39°54' W 075°12'0 0.0
2017-Nov-15 12:00N 39°54' W 075°12'0 0.0
2017-Nov-15 11:30N 39°53' W 075°12'0 0.0
2017-Nov-15 11:00N 39°54' W 075°12'1 1.2
2017-Nov-15 10:29N 39°53' W 075°11'0 0.0
2017-Nov-15 09:59N 39°53' W 075°11'0 0.0
2017-Nov-15 09:29N 39°53' W 075°11'0 0.0
2017-Nov-15 08:59N 39°53' W 075°11'0 0.0
2017-Nov-15 08:26N 39°53' W 075°11'0 0.0
2017-Nov-15 07:59N 39°53' W 075°11'0 0.0
2017-Nov-15 07:29N 39°53' W 075°11'0 0.0
2017-Nov-15 06:59N 39°53' W 075°11'0 0.0
2017-Nov-15 06:29N 39°53' W 075°11'0 0.0
2017-Nov-15 05:59N 39°53' W 075°11'0 0.0
2017-Nov-15 05:29N 39°53' W 075°11'0 0.0
2017-Nov-15 04:59N 39°53' W 075°11'0 0.0
2017-Nov-15 04:29N 39°53' W 075°11'0 0.0
2017-Nov-15 03:59N 39°53' W 075°11'0 0.0
2017-Nov-15 03:29N 39°53' W 075°11'0 0.0
2017-Nov-15 02:59N 39°53' W 075°11'0 0.0
2017-Nov-15 02:29N 39°53' W 075°11'0 0.0
2017-Nov-15 01:59N 39°53' W 075°11'0 0.0
2017-Nov-15 01:29N 39°53' W 075°11'0 0.0
2017-Nov-15 00:59N 39°53' W 075°11'0 0.0
2017-Nov-15 00:29N 39°53' W 075°11'0 0.0
2017-Nov-14 23:59N 39°53' W 075°11'0 0.0
2017-Nov-14 23:29N 39°53' W 075°11'0 0.0
2017-Nov-14 22:59N 39°53' W 075°11'0 0.0
2017-Nov-14 22:29N 39°53' W 075°11'0 0.0
2017-Nov-14 21:59N 39°53' W 075°11'0 0.0
2017-Nov-14 21:29N 39°53' W 075°11'0 0.0
2017-Nov-14 20:59N 39°53' W 075°11'0 0.0
2017-Nov-14 20:29N 39°53' W 075°11'0 0.2
2017-Nov-14 19:59N 39°53' W 075°11'0 0.0
2017-Nov-14 19:29N 39°53' W 075°11'0 0.0
2017-Nov-14 18:59N 39°53' W 075°11'0 0.1
2017-Nov-14 18:29N 39°53' W 075°11'0 0.0
2017-Nov-14 17:59N 39°53' W 075°11'0 0.0
2017-Nov-14 17:29N 39°53' W 075°11'0 0.0
2017-Nov-14 16:59N 39°53' W 075°11'0 0.0
2017-Nov-14 16:29N 39°53' W 075°11'0 0.0
2017-Nov-14 15:59N 39°53' W 075°11'0 0.1
2017-Nov-14 15:29N 39°53' W 075°11'0 0.1
2017-Nov-14 14:59N 39°53' W 075°11'0 0.0
2017-Nov-14 14:29N 39°53' W 075°11'0 0.0
2017-Nov-14 13:58N 39°53' W 075°11'0 0.0
2017-Nov-14 13:29N 39°53' W 075°11'0 0.0
2017-Nov-14 12:58N 39°53' W 075°11'0 0.0
2017-Nov-14 12:29N 39°53' W 075°11'0 0.1
2017-Nov-14 11:58N 39°53' W 075°11'0 0.1
2017-Nov-14 11:29N 39°53' W 075°11'0 0.0
2017-Nov-14 10:59N 39°53' W 075°11'0 0.0
2017-Nov-14 10:29N 39°53' W 075°11'0 0.0
2017-Nov-14 09:59N 39°53' W 075°11'0 0.0
2017-Nov-14 09:29N 39°53' W 075°11'0 0.0
2017-Nov-14 08:59N 39°53' W 075°11'0 0.0
2017-Nov-14 08:29N 39°53' W 075°11'0 0.0
2017-Nov-14 07:59N 39°53' W 075°11'0 0.0
2017-Nov-14 07:29N 39°53' W 075°11'0 0.0
2017-Nov-14 06:59N 39°53' W 075°11'0 0.0
2017-Nov-14 06:29N 39°53' W 075°11'0 0.0
2017-Nov-14 05:59N 39°53' W 075°11'0 0.0
2017-Nov-14 05:29N 39°53' W 075°11'0 0.0
2017-Nov-14 04:53N 39°53' W 075°11'0 0.1
2017-Nov-14 04:29N 39°53' W 075°11'0 0.0
2017-Nov-14 03:59N 39°53' W 075°11'0 0.1
2017-Nov-14 03:29N 39°53' W 075°11'0 0.1
2017-Nov-14 02:59N 39°53' W 075°11'0 0.0
2017-Nov-14 02:29N 39°53' W 075°11'0 0.0
2017-Nov-14 01:59N 39°53' W 075°11'0 0.0
2017-Nov-14 01:29N 39°53' W 075°11'0 0.0
2017-Nov-14 00:59N 39°53' W 075°11'0 0.0
2017-Nov-14 00:29N 39°53' W 075°11'0 0.0
2017-Nov-13 23:59N 39°53' W 075°11'0 0.0
2017-Nov-13 23:29N 39°53' W 075°11'0 0.0
2017-Nov-13 22:59N 39°53' W 075°11'0 0.0
2017-Nov-13 22:29N 39°53' W 075°11'0 0.0
2017-Nov-13 21:59N 39°53' W 075°11'0 0.0
2017-Nov-13 01:59N 39°53' W 075°11'0 0.0
2017-Nov-13 01:29N 39°53' W 075°11'0 0.0
2017-Nov-13 00:59N 39°53' W 075°11'0 0.0
2017-Nov-13 00:29N 39°53' W 075°11'0 0.0
2017-Nov-12 23:58N 39°53' W 075°11'0 0.0
2017-Nov-12 23:26N 39°53' W 075°11'0 0.0
2017-Nov-12 22:56N 39°53' W 075°11'0 0.0
2017-Nov-12 22:29N 39°53' W 075°11'0 0.0
2017-Nov-12 21:59N 39°53' W 075°11'0 0.0
2017-Nov-12 21:29N 39°53' W 075°11'0 0.1
2017-Nov-12 20:59N 39°53' W 075°11'0 0.0
2017-Nov-12 20:28N 39°53' W 075°11'0 0.1
2017-Nov-12 19:58N 39°53' W 075°11'0 0.0
2017-Nov-12 19:29N 39°53' W 075°11'0 0.0
2017-Nov-12 18:59N 39°53' W 075°11'0 0.0
2017-Nov-12 18:29N 39°53' W 075°11'0 0.0
2017-Nov-12 17:59N 39°53' W 075°11'0 0.0
2017-Nov-12 17:29N 39°53' W 075°11'0 0.0
2017-Nov-12 16:58N 39°53' W 075°11'0 0.0
2017-Nov-12 16:29N 39°53' W 075°11'0 0.0
2017-Nov-12 15:58N 39°53' W 075°11'0 0.0
2017-Nov-12 15:29N 39°53' W 075°11'0 0.0
2017-Nov-12 14:59N 39°53' W 075°11'0 0.0
2017-Nov-12 14:29N 39°53' W 075°11'0 0.0
2017-Nov-12 13:59N 39°53' W 075°11'0 0.0
2017-Nov-12 13:29N 39°53' W 075°11'0 0.0
2017-Nov-12 12:59N 39°53' W 075°11'0 0.0
2017-Nov-12 12:29N 39°53' W 075°11'0 0.0
2017-Nov-12 11:59N 39°53' W 075°11'0 0.0
2017-Nov-12 11:29N 39°53' W 075°11'0 0.0
2017-Nov-12 10:59N 39°53' W 075°11'0 0.0
2017-Nov-12 10:29N 39°53' W 075°11'0 0.0
2017-Nov-12 09:59N 39°53' W 075°11'0 0.0
2017-Nov-12 09:29N 39°53' W 075°11'0 0.0
2017-Nov-12 08:59N 39°53' W 075°11'0 0.0
2017-Nov-12 08:29N 39°53' W 075°11'0 0.0
2017-Nov-12 07:59N 39°53' W 075°11'0 0.0
2017-Nov-12 07:26N 39°53' W 075°11'0 0.0
2017-Nov-12 06:59N 39°53' W 075°11'0 0.0
2017-Nov-12 06:29N 39°53' W 075°11'0 0.0
2017-Nov-12 05:59N 39°53' W 075°11'0 0.0
2017-Nov-12 05:29N 39°53' W 075°11'0 0.0
2017-Nov-12 04:59N 39°53' W 075°11'0 0.0
2017-Nov-12 04:29N 39°53' W 075°11'0 0.0
2017-Nov-12 03:59N 39°53' W 075°11'0 0.0
2017-Nov-12 03:29N 39°53' W 075°11'0 0.0
2017-Nov-12 02:59N 39°53' W 075°11'0 0.0
2017-Nov-12 02:29N 39°53' W 075°11'0 0.0
2017-Nov-12 01:59N 39°53' W 075°11'0 0.0
2017-Nov-12 01:29N 39°53' W 075°11'0 0.0
2017-Nov-12 00:59N 39°53' W 075°11'0 0.0
2017-Nov-12 00:29N 39°53' W 075°11'0 0.0
2017-Nov-11 23:59N 39°53' W 075°11'0 0.0
2017-Nov-11 23:29N 39°53' W 075°11'0 0.0
2017-Nov-11 22:56N 39°53' W 075°11'0 0.0
2017-Nov-11 22:29N 39°53' W 075°11'0 0.0
2017-Nov-11 21:59N 39°53' W 075°11'0 0.0
2017-Nov-11 21:29N 39°53' W 075°11'0 0.0
2017-Nov-11 20:59N 39°53' W 075°11'0 0.0
2017-Nov-11 20:29N 39°53' W 075°11'0 0.0
2017-Nov-11 19:59N 39°53' W 075°11'0 0.0
2017-Nov-11 19:29N 39°53' W 075°11'0 0.0
2017-Nov-11 18:59N 39°53' W 075°11'0 0.0
2017-Nov-11 18:29N 39°53' W 075°11'0 0.0
2017-Nov-11 17:59N 39°53' W 075°11'0 0.0
2017-Nov-11 17:29N 39°53' W 075°11'0 0.0
2017-Nov-11 16:59N 39°53' W 075°11'0 0.0
2017-Nov-11 16:23N 39°53' W 075°11'0 0.0
2017-Nov-11 15:59N 39°53' W 075°11'0 0.0
2017-Nov-11 15:29N 39°53' W 075°11'0 0.0
2017-Nov-11 14:59N 39°53' W 075°11'0 0.0
2017-Nov-11 14:29N 39°53' W 075°11'0 0.0
2017-Nov-11 13:59N 39°53' W 075°11'0 0.0
2017-Nov-11 13:29N 39°53' W 075°11'0 0.0
2017-Nov-11 12:59N 39°53' W 075°11'0 0.0
2017-Nov-11 12:29N 39°53' W 075°11'0 0.0
2017-Nov-11 11:59N 39°53' W 075°11'0 0.0
2017-Nov-11 11:29N 39°53' W 075°11'0 0.0
2017-Nov-11 10:59N 39°53' W 075°11'0 0.0
2017-Nov-11 10:29N 39°53' W 075°11'0 0.0
2017-Nov-11 09:59N 39°53' W 075°11'0 0.0
2017-Nov-11 09:29N 39°53' W 075°11'0 0.0
2017-Nov-11 08:59N 39°53' W 075°11'0 0.0
2017-Nov-11 08:29N 39°53' W 075°11'0 0.0
2017-Nov-11 07:59N 39°53' W 075°11'0 0.0
2017-Nov-11 07:29N 39°53' W 075°11'0 0.0
2017-Nov-11 06:59N 39°53' W 075°11'0 0.0
2017-Nov-11 06:29N 39°53' W 075°11'0 0.0
2017-Nov-11 05:59N 39°53' W 075°11'0 0.0
2017-Nov-11 05:29N 39°53' W 075°11'0 0.0
2017-Nov-11 04:59N 39°53' W 075°11'0 0.0
2017-Nov-11 04:29N 39°53' W 075°11'0 0.0
2017-Nov-11 03:59N 39°53' W 075°11'0 0.0
2017-Nov-11 03:29N 39°53' W 075°11'0 0.0
2017-Nov-11 02:59N 39°53' W 075°11'0 0.0
2017-Nov-11 02:29N 39°53' W 075°11'0 0.0
2017-Nov-11 01:59N 39°53' W 075°11'0 0.0
2017-Nov-11 01:29N 39°53' W 075°11'0 0.0
2017-Nov-11 00:59N 39°53' W 075°11'0 0.0
2017-Nov-11 00:29N 39°53' W 075°11'0 0.0
2017-Nov-10 23:59N 39°53' W 075°11'0 0.0
2017-Nov-10 23:29N 39°53' W 075°11'0 0.0
2017-Nov-10 22:59N 39°53' W 075°11'0 0.0
2017-Nov-10 22:29N 39°53' W 075°11'0 0.0
2017-Nov-10 21:59N 39°53' W 075°11'0 0.0
2017-Nov-10 21:29N 39°53' W 075°11'0 0.0
2017-Nov-10 20:59N 39°53' W 075°11'0 0.0
2017-Nov-10 20:29N 39°53' W 075°11'0 0.0
2017-Nov-10 19:59N 39°53' W 075°11'0 0.0
2017-Nov-10 19:29N 39°53' W 075°11'0 0.0
2017-Nov-10 18:59N 39°53' W 075°11'0 0.0
2017-Nov-10 18:29N 39°53' W 075°11'0 0.0
2017-Nov-10 17:59N 39°53' W 075°11'0 0.0
2017-Nov-10 17:29N 39°53' W 075°11'0 0.0
2017-Nov-10 16:59N 39°53' W 075°11'0 0.0
2017-Nov-10 16:29N 39°53' W 075°11'0 0.0
2017-Nov-10 15:59N 39°53' W 075°11'0 0.0
2017-Nov-10 15:29N 39°53' W 075°11'0 0.0
2017-Nov-10 14:59N 39°53' W 075°11'0 0.0
2017-Nov-10 14:29N 39°53' W 075°11'0 0.0
2017-Nov-10 13:59N 39°53' W 075°11'0 0.0
2017-Nov-10 13:29N 39°53' W 075°11'0 0.0
2017-Nov-10 12:59N 39°53' W 075°11'0 0.0
2017-Nov-10 12:29N 39°53' W 075°11'0 0.0
2017-Nov-10 11:59N 39°53' W 075°11'0 0.0
2017-Nov-10 11:29N 39°53' W 075°11'0 0.0
2017-Nov-10 10:59N 39°53' W 075°11'0 0.0
2017-Nov-10 10:29N 39°53' W 075°11'0 0.0
2017-Nov-10 09:59N 39°53' W 075°11'0 0.0
2017-Nov-10 09:29N 39°53' W 075°11'0 0.0
2017-Nov-10 08:59N 39°53' W 075°11'0 0.0
2017-Nov-10 08:29N 39°53' W 075°11'0 0.0
2017-Nov-10 07:59N 39°53' W 075°11'0 0.0
2017-Nov-10 07:29N 39°53' W 075°11'0 0.0
2017-Nov-10 06:59N 39°53' W 075°11'0 0.0
2017-Nov-10 06:29N 39°53' W 075°11'0 0.0
2017-Nov-10 05:59N 39°53' W 075°11'0 0.0
2017-Nov-10 05:29N 39°53' W 075°11'0 0.0
2017-Nov-10 04:59N 39°53' W 075°11'0 0.0
2017-Nov-10 04:29N 39°53' W 075°11'0 0.0
2017-Nov-10 03:59N 39°53' W 075°11'0 0.0
2017-Nov-10 03:26N 39°53' W 075°11'0 0.0
2017-Nov-10 02:59N 39°53' W 075°11'0 0.0
2017-Nov-10 02:29N 39°53' W 075°11'0 0.0
2017-Nov-10 01:59N 39°53' W 075°11'0 0.0
2017-Nov-10 01:29N 39°53' W 075°11'0 0.0
2017-Nov-10 00:59N 39°53' W 075°11'0 0.0
2017-Nov-10 00:29N 39°53' W 075°11'0 0.0
2017-Nov-09 23:59N 39°53' W 075°11'0 0.0
2017-Nov-09 23:29N 39°53' W 075°11'0 0.0
2017-Nov-09 22:59N 39°53' W 075°11'0 0.0
2017-Nov-09 22:29N 39°53' W 075°11'0 0.0
2017-Nov-09 21:59N 39°53' W 075°11'0 0.0
2017-Nov-09 21:29N 39°53' W 075°11'0 0.0
2017-Nov-09 20:59N 39°53' W 075°11'0 0.0
2017-Nov-09 20:29N 39°53' W 075°11'0 0.0
2017-Nov-09 19:59N 39°53' W 075°11'0 0.0
2017-Nov-09 19:29N 39°53' W 075°11'0 0.0
2017-Nov-09 18:59N 39°53' W 075°11'0 0.0
2017-Nov-09 18:29N 39°53' W 075°11'0 0.0
2017-Nov-09 17:59N 39°53' W 075°11'0 0.0
2017-Nov-09 17:29N 39°53' W 075°11'0 0.0
2017-Nov-09 16:59N 39°53' W 075°11'0 0.0
2017-Nov-09 16:29N 39°53' W 075°11'0 0.0
2017-Nov-09 15:59N 39°53' W 075°11'0 0.0
2017-Nov-09 15:29N 39°53' W 075°11'0 0.0
2017-Nov-09 14:59N 39°53' W 075°11'0 0.0
2017-Nov-09 14:26N 39°53' W 075°11'0 0.0
2017-Nov-09 13:59N 39°53' W 075°11'0 0.0
2017-Nov-09 13:29N 39°53' W 075°11'0 0.0
2017-Nov-09 12:53N 39°53' W 075°11'0 0.0
2017-Nov-09 12:26N 39°53' W 075°11'0 0.0
2017-Nov-09 11:59N 39°53' W 075°11'0 0.0
2017-Nov-09 11:29N 39°53' W 075°11'0 0.0
2017-Nov-09 10:59N 39°53' W 075°11'0 0.0
2017-Nov-09 10:29N 39°53' W 075°11'0 0.0
2017-Nov-09 09:59N 39°53' W 075°11'0 0.0
2017-Nov-09 09:29N 39°53' W 075°11'0 0.0
2017-Nov-09 08:59N 39°53' W 075°11'0 0.0
2017-Nov-09 08:29N 39°53' W 075°11'0 0.0
2017-Nov-09 07:59N 39°53' W 075°11'0 0.0
2017-Nov-09 07:29N 39°53' W 075°11'0 0.0
2017-Nov-09 06:59N 39°53' W 075°11'0 0.0
2017-Nov-09 06:29N 39°53' W 075°11'0 0.0
2017-Nov-09 05:59N 39°53' W 075°11'0 0.0
2017-Nov-09 05:29N 39°53' W 075°11'0 0.0
2017-Nov-09 04:59N 39°53' W 075°11'0 0.0
2017-Nov-09 04:29N 39°53' W 075°11'0 0.0
2017-Nov-09 03:59N 39°53' W 075°11'0 0.0
2017-Nov-09 03:29N 39°53' W 075°11'0 0.0
2017-Nov-09 02:59N 39°53' W 075°11'0 0.0
2017-Nov-09 02:29N 39°53' W 075°11'0 0.0
2017-Nov-09 01:59N 39°53' W 075°11'0 0.0
2017-Nov-09 01:29N 39°53' W 075°11'0 0.0
2017-Nov-09 00:59N 39°53' W 075°11'0 0.0
2017-Nov-09 00:29N 39°53' W 075°11'0 0.0
2017-Nov-08 23:59N 39°53' W 075°11'0 0.0
2017-Nov-08 23:29N 39°53' W 075°11'0 0.0
2017-Nov-08 22:59N 39°53' W 075°11'0 0.0
2017-Nov-08 22:29N 39°53' W 075°11'0 0.0
2017-Nov-08 21:59N 39°53' W 075°11'0 0.0
2017-Nov-08 21:29N 39°53' W 075°11'0 0.0
2017-Nov-08 20:59N 39°53' W 075°11'0 0.0
2017-Nov-08 20:29N 39°53' W 075°11'0 0.0
2017-Nov-08 19:59N 39°53' W 075°11'0 0.0
2017-Nov-08 19:29N 39°53' W 075°11'0 0.0
2017-Nov-08 18:59N 39°53' W 075°11'0 0.0
2017-Nov-08 18:29N 39°53' W 075°11'0 0.0
2017-Nov-08 17:59N 39°53' W 075°11'0 0.0
2017-Nov-08 17:29N 39°53' W 075°11'0 0.0
2017-Nov-08 16:59N 39°53' W 075°11'0 0.0
2017-Nov-08 16:29N 39°53' W 075°11'0 0.0
2017-Nov-08 15:59N 39°53' W 075°11'0 0.0
2017-Nov-08 15:29N 39°53' W 075°11'0 0.0
2017-Nov-08 14:59N 39°53' W 075°11'0 0.0
2017-Nov-08 14:29N 39°53' W 075°11'0 0.0
2017-Nov-08 13:59N 39°53' W 075°11'0 0.0
2017-Nov-08 13:29N 39°53' W 075°11'0 0.0
2017-Nov-08 12:59N 39°53' W 075°11'0 0.0
2017-Nov-08 12:29N 39°53' W 075°11'0 0.0
2017-Nov-08 11:59N 39°53' W 075°11'0 0.0
2017-Nov-08 11:29N 39°53' W 075°11'0 0.0
2017-Nov-08 10:59N 39°53' W 075°11'0 0.0
2017-Nov-08 10:29N 39°53' W 075°11'0 0.0
2017-Nov-08 09:59N 39°53' W 075°11'0 0.0
2017-Nov-08 09:29N 39°53' W 075°11'0 0.0
2017-Nov-08 08:59N 39°53' W 075°11'0 0.0
2017-Nov-08 08:29N 39°53' W 075°11'0 0.0
2017-Nov-08 07:56N 39°53' W 075°11'0 0.0
2017-Nov-08 07:29N 39°53' W 075°11'0 0.0
2017-Nov-08 06:59N 39°53' W 075°11'0 0.0
2017-Nov-08 06:29N 39°53' W 075°11'0 0.0
2017-Nov-08 05:59N 39°53' W 075°11'0 0.0
2017-Nov-08 05:29N 39°53' W 075°11'0 0.0
2017-Nov-08 04:59N 39°53' W 075°11'0 0.0
2017-Nov-08 04:29N 39°53' W 075°11'0 0.0
2017-Nov-08 03:59N 39°53' W 075°11'0 0.0
2017-Nov-08 03:29N 39°53' W 075°11'0 0.0
2017-Nov-08 02:59N 39°53' W 075°11'0 0.0
2017-Nov-08 02:29N 39°53' W 075°11'0 0.0
2017-Nov-08 01:59N 39°53' W 075°11'0 0.0
2017-Nov-08 01:29N 39°53' W 075°11'0 0.0
2017-Nov-08 00:59N 39°53' W 075°11'0 0.0
2017-Nov-08 00:29N 39°53' W 075°11'0 0.0
2017-Nov-07 23:59N 39°53' W 075°11'0 0.0
2017-Nov-07 23:29N 39°53' W 075°11'0 0.0
2017-Nov-07 22:59N 39°53' W 075°11'0 0.0
2017-Nov-07 22:29N 39°53' W 075°11'0 0.0
2017-Nov-07 21:59N 39°53' W 075°11'0 0.0
2017-Nov-07 21:29N 39°53' W 075°11'0 0.0
2017-Nov-07 20:59N 39°53' W 075°11'0 0.0
2017-Nov-07 20:29N 39°53' W 075°11'0 0.0
2017-Nov-07 19:59N 39°53' W 075°11'0 0.0
2017-Nov-07 19:29N 39°53' W 075°11'0 0.0
2017-Nov-07 18:59N 39°53' W 075°11'0 0.0
2017-Nov-07 18:29N 39°53' W 075°11'  
Track history (hours):
 
Tides and Currents Weather Stations Pressure Air Temp Water Temp Dewpoint Dewpoint Depression Visibility Wind Speed Wind Dir Waves Ship Positions

Genesis Glory

Owner: Genesis Marine, LLC, Houston, TX. More information available from US FCC via Universal Licensing System and Coast Guard Vessel Documentation Center.

Last reported at 2017-Nov-17 18:21 UTC. Time now 2017-Nov-18 11:49 UTC.
Position N 41°10' W 072°22'.

Length 36 m; draft 4.9 m.

Type: Towing. MMSI: 367586910.

Date/timePositionNaut miles runAvg speedWind from/ knotsBaromVisibWave heightAir tempDewpointWater temp
2017-Nov-17 18:21N 41°10' W 072°22'6 9.5
2017-Nov-17 17:45N 41°08' W 072°29'59 7.0
2017-Nov-17 09:23N 40°53' W 073°44'3 8.9
2017-Nov-17 09:00N 40°50' W 073°47'3 6.8
2017-Nov-17 08:30N 40°48' W 073°50'4 7.1
2017-Nov-17 08:00N 40°47' W 073°55'3 5.4
2017-Nov-17 07:30N 40°46' W 073°57'3 6.3
2017-Nov-17 07:00N 40°43' W 073°59'3 6.3
2017-Nov-17 06:30N 40°41' W 074°02'2 3.9
2017-Nov-17 06:00N 40°39' W 074°03'0 0.1
2017-Nov-17 05:30N 40°39' W 074°03'0 0.1
2017-Nov-17 05:00N 40°39' W 074°03'0 0.0
2017-Nov-17 04:30N 40°39' W 074°03'0 0.0
2017-Nov-17 04:00N 40°39' W 074°03'0 0.0
2017-Nov-17 03:30N 40°39' W 074°03'0 0.1
2017-Nov-17 03:00N 40°39' W 074°03'0 0.0
2017-Nov-17 02:30N 40°39' W 074°03'0 0.9
2017-Nov-17 02:00N 40°39' W 074°03'3 6.7
2017-Nov-17 01:30N 40°39' W 074°07'2 4.9
2017-Nov-17 01:00N 40°41' W 074°08'1 2.6
2017-Nov-17 00:30N 40°42' W 074°09'0 0.0
2017-Nov-17 00:00N 40°42' W 074°09'0 0.0
2017-Nov-16 23:30N 40°42' W 074°09'0 0.0
2017-Nov-16 23:00N 40°42' W 074°09'0 0.0
2017-Nov-16 22:30N 40°42' W 074°09'0 0.0
2017-Nov-16 22:00N 40°42' W 074°09'3 5.5
2017-Nov-16 21:30N 40°39' W 074°09'2 3.1
2017-Nov-16 21:00N 40°39' W 074°07'0 0.0
2017-Nov-16 20:30N 40°39' W 074°07'0 0.0
2017-Nov-16 20:00N 40°39' W 074°07'0 0.0
2017-Nov-16 19:30N 40°39' W 074°07'0 0.0
2017-Nov-16 19:00N 40°39' W 074°07'0 0.0
2017-Nov-16 18:30N 40°39' W 074°07'2 3.4
2017-Nov-16 18:00N 40°39' W 074°09'2 4.5
2017-Nov-16 17:30N 40°39' W 074°06'4 7.9
2017-Nov-16 17:00N 40°36' W 074°02'5 9.6
2017-Nov-16 16:30N 40°32' W 074°01'4010.7
2017-Nov-16 12:43N 39°51' W 074°01'312.1
2017-Nov-16 12:30N 39°48' W 074°01'612.2
2017-Nov-16 11:58N 39°42' W 074°04'612.5
2017-Nov-16 11:28N 39°37' W 074°07'60 9.2
2017-Nov-16 04:59N 39°02' W 075°09'713.7
2017-Nov-16 04:30N 39°07' W 075°13'713.6
2017-Nov-16 04:00N 39°13' W 075°18'612.9
2017-Nov-16 03:30N 39°18' W 075°23'612.1
2017-Nov-16 03:00N 39°23' W 075°28'611.6
2017-Nov-16 02:30N 39°27' W 075°33'510.6
2017-Nov-16 02:00N 39°32' W 075°33'510.3
2017-Nov-16 01:30N 39°37' W 075°35'510.2
2017-Nov-16 01:01N 39°41' W 075°31'5 9.6
2017-Nov-16 00:30N 39°46' W 075°29'3 6.1
2017-Nov-16 00:00N 39°48' W 075°26'5 9.7
2017-Nov-15 23:30N 39°51' W 075°21'5 9.8
2017-Nov-15 23:01N 39°51' W 075°14'3 6.6
2017-Nov-15 22:31N 39°53' W 075°11'0 0.0
2017-Nov-15 22:00N 39°53' W 075°11'0 0.0
2017-Nov-15 21:31N 39°53' W 075°11'0 0.2
2017-Nov-15 21:00N 39°53' W 075°11'0 0.0
2017-Nov-15 20:31N 39°53' W 075°11'1 1.3
2017-Nov-15 20:00N 39°54' W 075°12'0 0.0
2017-Nov-15 19:30N 39°54' W 075°12'0 0.0
2017-Nov-15 19:00N 39°54' W 075°12'0 0.0
2017-Nov-15 18:30N 39°54' W 075°12'0 0.1
2017-Nov-15 18:00N 39°53' W 075°12'0 0.0
2017-Nov-15 17:30N 39°54' W 075°12'0 0.0
2017-Nov-15 17:00N 39°54' W 075°12'0 0.0
2017-Nov-15 16:30N 39°54' W 075°12'0 0.0
2017-Nov-15 16:00N 39°54' W 075°12'0 0.0
2017-Nov-15 15:30N 39°53' W 075°12'0 0.0
2017-Nov-15 15:00N 39°54' W 075°12'0 0.0
2017-Nov-15 14:30N 39°54' W 075°12'0 0.0
2017-Nov-15 14:00N 39°54' W 075°12'0 0.0
2017-Nov-15 13:30N 39°54' W 075°12'0 0.0
2017-Nov-15 13:00N 39°54' W 075°12'0 0.0
2017-Nov-15 12:30N 39°54' W 075°12'0 0.0
2017-Nov-15 12:00N 39°54' W 075°12'0 0.0
2017-Nov-15 11:30N 39°53' W 075°12'0 0.0
2017-Nov-15 11:00N 39°54' W 075°12'1 1.2
2017-Nov-15 10:29N 39°53' W 075°11'0 0.0
2017-Nov-15 09:59N 39°53' W 075°11'0 0.0
2017-Nov-15 09:29N 39°53' W 075°11'0 0.0
2017-Nov-15 08:59N 39°53' W 075°11'0 0.0
2017-Nov-15 08:26N 39°53' W 075°11'0 0.0
2017-Nov-15 07:59N 39°53' W 075°11'0 0.0
2017-Nov-15 07:29N 39°53' W 075°11'0 0.0
2017-Nov-15 06:59N 39°53' W 075°11'0 0.0
2017-Nov-15 06:29N 39°53' W 075°11'0 0.0
2017-Nov-15 05:59N 39°53' W 075°11'0 0.0
2017-Nov-15 05:29N 39°53' W 075°11'0 0.0
2017-Nov-15 04:59N 39°53' W 075°11'0 0.0
2017-Nov-15 04:29N 39°53' W 075°11'0 0.0
2017-Nov-15 03:59N 39°53' W 075°11'0 0.0
2017-Nov-15 03:29N 39°53' W 075°11'0 0.0
2017-Nov-15 02:59N 39°53' W 075°11'0 0.0
2017-Nov-15 02:29N 39°53' W 075°11'0 0.0
2017-Nov-15 01:59N 39°53' W 075°11'0 0.0
2017-Nov-15 01:29N 39°53' W 075°11'0 0.0
2017-Nov-15 00:59N 39°53' W 075°11'0 0.0
2017-Nov-15 00:29N 39°53' W 075°11'0 0.0
2017-Nov-14 23:59N 39°53' W 075°11'0 0.0
2017-Nov-14 23:29N 39°53' W 075°11'0 0.0
2017-Nov-14 22:59N 39°53' W 075°11'0 0.0
2017-Nov-14 22:29N 39°53' W 075°11'0 0.0
2017-Nov-14 21:59N 39°53' W 075°11'0 0.0
2017-Nov-14 21:29N 39°53' W 075°11'0 0.0
2017-Nov-14 20:59N 39°53' W 075°11'0 0.0
2017-Nov-14 20:29N 39°53' W 075°11'0 0.2
2017-Nov-14 19:59N 39°53' W 075°11'0 0.0
2017-Nov-14 19:29N 39°53' W 075°11'0 0.0
2017-Nov-14 18:59N 39°53' W 075°11'0 0.1
2017-Nov-14 18:29N 39°53' W 075°11'0 0.0
2017-Nov-14 17:59N 39°53' W 075°11'0 0.0
2017-Nov-14 17:29N 39°53' W 075°11'0 0.0
2017-Nov-14 16:59N 39°53' W 075°11'0 0.0
2017-Nov-14 16:29N 39°53' W 075°11'0 0.0
2017-Nov-14 15:59N 39°53' W 075°11'0 0.1
2017-Nov-14 15:29N 39°53' W 075°11'0 0.1
2017-Nov-14 14:59N 39°53' W 075°11'0 0.0
2017-Nov-14 14:29N 39°53' W 075°11'0 0.0
2017-Nov-14 13:58N 39°53' W 075°11'0 0.0
2017-Nov-14 13:29N 39°53' W 075°11'0 0.0
2017-Nov-14 12:58N 39°53' W 075°11'0 0.0
2017-Nov-14 12:29N 39°53' W 075°11'0 0.1
2017-Nov-14 11:58N 39°53' W 075°11'0 0.1
2017-Nov-14 11:29N 39°53' W 075°11'0 0.0
2017-Nov-14 10:59N 39°53' W 075°11'0 0.0
2017-Nov-14 10:29N 39°53' W 075°11'0 0.0
2017-Nov-14 09:59N 39°53' W 075°11'0 0.0
2017-Nov-14 09:29N 39°53' W 075°11'0 0.0
2017-Nov-14 08:59N 39°53' W 075°11'0 0.0
2017-Nov-14 08:29N 39°53' W 075°11'0 0.0
2017-Nov-14 07:59N 39°53' W 075°11'0 0.0
2017-Nov-14 07:29N 39°53' W 075°11'0 0.0
2017-Nov-14 06:59N 39°53' W 075°11'0 0.0
2017-Nov-14 06:29N 39°53' W 075°11'0 0.0
2017-Nov-14 05:59N 39°53' W 075°11'0 0.0
2017-Nov-14 05:29N 39°53' W 075°11'0 0.0
2017-Nov-14 04:53N 39°53' W 075°11'0 0.1
2017-Nov-14 04:29N 39°53' W 075°11'0 0.0
2017-Nov-14 03:59N 39°53' W 075°11'0 0.1
2017-Nov-14 03:29N 39°53' W 075°11'0 0.1
2017-Nov-14 02:59N 39°53' W 075°11'0 0.0
2017-Nov-14 02:29N 39°53' W 075°11'0 0.0
2017-Nov-14 01:59N 39°53' W 075°11'0 0.0
2017-Nov-14 01:29N 39°53' W 075°11'0 0.0
2017-Nov-14 00:59N 39°53' W 075°11'0 0.0
2017-Nov-14 00:29N 39°53' W 075°11'0 0.0
2017-Nov-13 23:59N 39°53' W 075°11'0 0.0
2017-Nov-13 23:29N 39°53' W 075°11'0 0.0
2017-Nov-13 22:59N 39°53' W 075°11'0 0.0
2017-Nov-13 22:29N 39°53' W 075°11'0 0.0
2017-Nov-13 21:59N 39°53' W 075°11'0 0.0
2017-Nov-13 01:59N 39°53' W 075°11'0 0.0
2017-Nov-13 01:29N 39°53' W 075°11'0 0.0
2017-Nov-13 00:59N 39°53' W 075°11'0 0.0
2017-Nov-13 00:29N 39°53' W 075°11'0 0.0
2017-Nov-12 23:58N 39°53' W 075°11'0 0.0
2017-Nov-12 23:26N 39°53' W 075°11'0 0.0
2017-Nov-12 22:56N 39°53' W 075°11'0 0.0
2017-Nov-12 22:29N 39°53' W 075°11'0 0.0
2017-Nov-12 21:59N 39°53' W 075°11'0 0.0
2017-Nov-12 21:29N 39°53' W 075°11'0 0.1
2017-Nov-12 20:59N 39°53' W 075°11'0 0.0
2017-Nov-12 20:28N 39°53' W 075°11'0 0.1
2017-Nov-12 19:58N 39°53' W 075°11'0 0.0
2017-Nov-12 19:29N 39°53' W 075°11'0 0.0
2017-Nov-12 18:59N 39°53' W 075°11'0 0.0
2017-Nov-12 18:29N 39°53' W 075°11'0 0.0
2017-Nov-12 17:59N 39°53' W 075°11'0 0.0
2017-Nov-12 17:29N 39°53' W 075°11'0 0.0
2017-Nov-12 16:58N 39°53' W 075°11'0 0.0
2017-Nov-12 16:29N 39°53' W 075°11'0 0.0
2017-Nov-12 15:58N 39°53' W 075°11'0 0.0
2017-Nov-12 15:29N 39°53' W 075°11'0 0.0
2017-Nov-12 14:59N 39°53' W 075°11'0 0.0
2017-Nov-12 14:29N 39°53' W 075°11'0 0.0
2017-Nov-12 13:59N 39°53' W 075°11'0 0.0
2017-Nov-12 13:29N 39°53' W 075°11'0 0.0
2017-Nov-12 12:59N 39°53' W 075°11'0 0.0
2017-Nov-12 12:29N 39°53' W 075°11'0 0.0
2017-Nov-12 11:59N 39°53' W 075°11'0 0.0
2017-Nov-12 11:29N 39°53' W 075°11'0 0.0
2017-Nov-12 10:59N 39°53' W 075°11'0 0.0
2017-Nov-12 10:29N 39°53' W 075°11'0 0.0
2017-Nov-12 09:59N 39°53' W 075°11'0 0.0
2017-Nov-12 09:29N 39°53' W 075°11'0 0.0
2017-Nov-12 08:59N 39°53' W 075°11'0 0.0
2017-Nov-12 08:29N 39°53' W 075°11'0 0.0
2017-Nov-12 07:59N 39°53' W 075°11'0 0.0
2017-Nov-12 07:26N 39°53' W 075°11'0 0.0
2017-Nov-12 06:59N 39°53' W 075°11'0 0.0
2017-Nov-12 06:29N 39°53' W 075°11'0 0.0
2017-Nov-12 05:59N 39°53' W 075°11'0 0.0
2017-Nov-12 05:29N 39°53' W 075°11'0 0.0
2017-Nov-12 04:59N 39°53' W 075°11'0 0.0
2017-Nov-12 04:29N 39°53' W 075°11'0 0.0
2017-Nov-12 03:59N 39°53' W 075°11'0 0.0
2017-Nov-12 03:29N 39°53' W 075°11'0 0.0
2017-Nov-12 02:59N 39°53' W 075°11'0 0.0
2017-Nov-12 02:29N 39°53' W 075°11'0 0.0
2017-Nov-12 01:59N 39°53' W 075°11'0 0.0
2017-Nov-12 01:29N 39°53' W 075°11'0 0.0
2017-Nov-12 00:59N 39°53' W 075°11'0 0.0
2017-Nov-12 00:29N 39°53' W 075°11'0 0.0
2017-Nov-11 23:59N 39°53' W 075°11'0 0.0
2017-Nov-11 23:29N 39°53' W 075°11'0 0.0
2017-Nov-11 22:56N 39°53' W 075°11'0 0.0
2017-Nov-11 22:29N 39°53' W 075°11'0 0.0
2017-Nov-11 21:59N 39°53' W 075°11'0 0.0
2017-Nov-11 21:29N 39°53' W 075°11'0 0.0
2017-Nov-11 20:59N 39°53' W 075°11'0 0.0
2017-Nov-11 20:29N 39°53' W 075°11'0 0.0
2017-Nov-11 19:59N 39°53' W 075°11'0 0.0
2017-Nov-11 19:29N 39°53' W 075°11'0 0.0
2017-Nov-11 18:59N 39°53' W 075°11'0 0.0
2017-Nov-11 18:29N 39°53' W 075°11'0 0.0
2017-Nov-11 17:59N 39°53' W 075°11'0 0.0
2017-Nov-11 17:29N 39°53' W 075°11'0 0.0
2017-Nov-11 16:59N 39°53' W 075°11'0 0.0
2017-Nov-11 16:23N 39°53' W 075°11'0 0.0
2017-Nov-11 15:59N 39°53' W 075°11'0 0.0
2017-Nov-11 15:29N 39°53' W 075°11'0 0.0
2017-Nov-11 14:59N 39°53' W 075°11'0 0.0
2017-Nov-11 14:29N 39°53' W 075°11'0 0.0
2017-Nov-11 13:59N 39°53' W 075°11'0 0.0
2017-Nov-11 13:29N 39°53' W 075°11'0 0.0
2017-Nov-11 12:59N 39°53' W 075°11'0 0.0
2017-Nov-11 12:29N 39°53' W 075°11'0 0.0
2017-Nov-11 11:59N 39°53' W 075°11'0 0.0
2017-Nov-11 11:29N 39°53' W 075°11'0 0.0
2017-Nov-11 10:59N 39°53' W 075°11'0 0.0
2017-Nov-11 10:29N 39°53' W 075°11'0 0.0
2017-Nov-11 09:59N 39°53' W 075°11'0 0.0
2017-Nov-11 09:29N 39°53' W 075°11'0 0.0
2017-Nov-11 08:59N 39°53' W 075°11'0 0.0
2017-Nov-11 08:29N 39°53' W 075°11'0 0.0
2017-Nov-11 07:59N 39°53' W 075°11'0 0.0
2017-Nov-11 07:29N 39°53' W 075°11'0 0.0
2017-Nov-11 06:59N 39°53' W 075°11'0 0.0
2017-Nov-11 06:29N 39°53' W 075°11'0 0.0
2017-Nov-11 05:59N 39°53' W 075°11'0 0.0
2017-Nov-11 05:29N 39°53' W 075°11'0 0.0
2017-Nov-11 04:59N 39°53' W 075°11'0 0.0
2017-Nov-11 04:29N 39°53' W 075°11'0 0.0
2017-Nov-11 03:59N 39°53' W 075°11'0 0.0
2017-Nov-11 03:29N 39°53' W 075°11'0 0.0
2017-Nov-11 02:59N 39°53' W 075°11'0 0.0
2017-Nov-11 02:29N 39°53' W 075°11'0 0.0
2017-Nov-11 01:59N 39°53' W 075°11'0 0.0
2017-Nov-11 01:29N 39°53' W 075°11'0 0.0
2017-Nov-11 00:59N 39°53' W 075°11'0 0.0
2017-Nov-11 00:29N 39°53' W 075°11'0 0.0
2017-Nov-10 23:59N 39°53' W 075°11'0 0.0
2017-Nov-10 23:29N 39°53' W 075°11'0 0.0
2017-Nov-10 22:59N 39°53' W 075°11'0 0.0
2017-Nov-10 22:29N 39°53' W 075°11'0 0.0
2017-Nov-10 21:59N 39°53' W 075°11'0 0.0
2017-Nov-10 21:29N 39°53' W 075°11'0 0.0
2017-Nov-10 20:59N 39°53' W 075°11'0 0.0
2017-Nov-10 20:29N 39°53' W 075°11'0 0.0
2017-Nov-10 19:59N 39°53' W 075°11'0 0.0
2017-Nov-10 19:29N 39°53' W 075°11'0 0.0
2017-Nov-10 18:59N 39°53' W 075°11'0 0.0
2017-Nov-10 18:29N 39°53' W 075°11'0 0.0
2017-Nov-10 17:59N 39°53' W 075°11'0 0.0
2017-Nov-10 17:29N 39°53' W 075°11'0 0.0
2017-Nov-10 16:59N 39°53' W 075°11'0 0.0
2017-Nov-10 16:29N 39°53' W 075°11'0 0.0
2017-Nov-10 15:59N 39°53' W 075°11'0 0.0
2017-Nov-10 15:29N 39°53' W 075°11'0 0.0
2017-Nov-10 14:59N 39°53' W 075°11'0 0.0
2017-Nov-10 14:29N 39°53' W 075°11'0 0.0
2017-Nov-10 13:59N 39°53' W 075°11'0 0.0
2017-Nov-10 13:29N 39°53' W 075°11'0 0.0
2017-Nov-10 12:59N 39°53' W 075°11'0 0.0
2017-Nov-10 12:29N 39°53' W 075°11'0 0.0
2017-Nov-10 11:59N 39°53' W 075°11'0 0.0
2017-Nov-10 11:29N 39°53' W 075°11'0 0.0
2017-Nov-10 10:59N 39°53' W 075°11'0 0.0
2017-Nov-10 10:29N 39°53' W 075°11'0 0.0
2017-Nov-10 09:59N 39°53' W 075°11'0 0.0
2017-Nov-10 09:29N 39°53' W 075°11'0 0.0
2017-Nov-10 08:59N 39°53' W 075°11'0 0.0
2017-Nov-10 08:29N 39°53' W 075°11'0 0.0
2017-Nov-10 07:59N 39°53' W 075°11'0 0.0
2017-Nov-10 07:29N 39°53' W 075°11'0 0.0
2017-Nov-10 06:59N 39°53' W 075°11'0 0.0
2017-Nov-10 06:29N 39°53' W 075°11'0 0.0
2017-Nov-10 05:59N 39°53' W 075°11'0 0.0
2017-Nov-10 05:29N 39°53' W 075°11'0 0.0
2017-Nov-10 04:59N 39°53' W 075°11'0 0.0
2017-Nov-10 04:29N 39°53' W 075°11'0 0.0
2017-Nov-10 03:59N 39°53' W 075°11'0 0.0
2017-Nov-10 03:26N 39°53' W 075°11'0 0.0
2017-Nov-10 02:59N 39°53' W 075°11'0 0.0
2017-Nov-10 02:29N 39°53' W 075°11'0 0.0
2017-Nov-10 01:59N 39°53' W 075°11'0 0.0
2017-Nov-10 01:29N 39°53' W 075°11'0 0.0
2017-Nov-10 00:59N 39°53' W 075°11'0 0.0
2017-Nov-10 00:29N 39°53' W 075°11'0 0.0
2017-Nov-09 23:59N 39°53' W 075°11'0 0.0
2017-Nov-09 23:29N 39°53' W 075°11'0 0.0
2017-Nov-09 22:59N 39°53' W 075°11'0 0.0
2017-Nov-09 22:29N 39°53' W 075°11'0 0.0
2017-Nov-09 21:59N 39°53' W 075°11'0 0.0
2017-Nov-09 21:29N 39°53' W 075°11'0 0.0
2017-Nov-09 20:59N 39°53' W 075°11'0 0.0
2017-Nov-09 20:29N 39°53' W 075°11'0 0.0
2017-Nov-09 19:59N 39°53' W 075°11'0 0.0
2017-Nov-09 19:29N 39°53' W 075°11'0 0.0
2017-Nov-09 18:59N 39°53' W 075°11'0 0.0
2017-Nov-09 18:29N 39°53' W 075°11'0 0.0
2017-Nov-09 17:59N 39°53' W 075°11'0 0.0
2017-Nov-09 17:29N 39°53' W 075°11'0 0.0
2017-Nov-09 16:59N 39°53' W 075°11'0 0.0
2017-Nov-09 16:29N 39°53' W 075°11'0 0.0
2017-Nov-09 15:59N 39°53' W 075°11'0 0.0
2017-Nov-09 15:29N 39°53' W 075°11'0 0.0
2017-Nov-09 14:59N 39°53' W 075°11'0 0.0
2017-Nov-09 14:26N 39°53' W 075°11'0 0.0
2017-Nov-09 13:59N 39°53' W 075°11'0 0.0
2017-Nov-09 13:29N 39°53' W 075°11'0 0.0
2017-Nov-09 12:53N 39°53' W 075°11'0 0.0
2017-Nov-09 12:26N 39°53' W 075°11'0 0.0
2017-Nov-09 11:59N 39°53' W 075°11'0 0.0
2017-Nov-09 11:29N 39°53' W 075°11'0 0.0
2017-Nov-09 10:59N 39°53' W 075°11'0 0.0
2017-Nov-09 10:29N 39°53' W 075°11'0 0.0
2017-Nov-09 09:59N 39°53' W 075°11'0 0.0
2017-Nov-09 09:29N 39°53' W 075°11'0 0.0
2017-Nov-09 08:59N 39°53' W 075°11'0 0.0
2017-Nov-09 08:29N 39°53' W 075°11'0 0.0
2017-Nov-09 07:59N 39°53' W 075°11'0 0.0
2017-Nov-09 07:29N 39°53' W 075°11'0 0.0
2017-Nov-09 06:59N 39°53' W 075°11'0 0.0
2017-Nov-09 06:29N 39°53' W 075°11'0 0.0
2017-Nov-09 05:59N 39°53' W 075°11'0 0.0
2017-Nov-09 05:29N 39°53' W 075°11'0 0.0
2017-Nov-09 04:59N 39°53' W 075°11'0 0.0
2017-Nov-09 04:29N 39°53' W 075°11'0 0.0
2017-Nov-09 03:59N 39°53' W 075°11'0 0.0
2017-Nov-09 03:29N 39°53' W 075°11'0 0.0
2017-Nov-09 02:59N 39°53' W 075°11'0 0.0
2017-Nov-09 02:29N 39°53' W 075°11'0 0.0
2017-Nov-09 01:59N 39°53' W 075°11'0 0.0
2017-Nov-09 01:29N 39°53' W 075°11'0 0.0
2017-Nov-09 00:59N 39°53' W 075°11'0 0.0
2017-Nov-09 00:29N 39°53' W 075°11'0 0.0
2017-Nov-08 23:59N 39°53' W 075°11'0 0.0
2017-Nov-08 23:29N 39°53' W 075°11'0 0.0
2017-Nov-08 22:59N 39°53' W 075°11'0 0.0
2017-Nov-08 22:29N 39°53' W 075°11'0 0.0
2017-Nov-08 21:59N 39°53' W 075°11'0 0.0
2017-Nov-08 21:29N 39°53' W 075°11'0 0.0
2017-Nov-08 20:59N 39°53' W 075°11'0 0.0
2017-Nov-08 20:29N 39°53' W 075°11'0 0.0
2017-Nov-08 19:59N 39°53' W 075°11'0 0.0
2017-Nov-08 19:29N 39°53' W 075°11'0 0.0
2017-Nov-08 18:59N 39°53' W 075°11'0 0.0
2017-Nov-08 18:29N 39°53' W 075°11'0 0.0
2017-Nov-08 17:59N 39°53' W 075°11'0 0.0
2017-Nov-08 17:29N 39°53' W 075°11'0 0.0
2017-Nov-08 16:59N 39°53' W 075°11'0 0.0
2017-Nov-08 16:29N 39°53' W 075°11'0 0.0
2017-Nov-08 15:59N 39°53' W 075°11'0 0.0
2017-Nov-08 15:29N 39°53' W 075°11'0 0.0
2017-Nov-08 14:59N 39°53' W 075°11'0 0.0
2017-Nov-08 14:29N 39°53' W 075°11'0 0.0
2017-Nov-08 13:59N 39°53' W 075°11'0 0.0
2017-Nov-08 13:29N 39°53' W 075°11'0 0.0
2017-Nov-08 12:59N 39°53' W 075°11'0 0.0
2017-Nov-08 12:29N 39°53' W 075°11'0 0.0
2017-Nov-08 11:59N 39°53' W 075°11'0 0.0
2017-Nov-08 11:29N 39°53' W 075°11'0 0.0
2017-Nov-08 10:59N 39°53' W 075°11'0 0.0
2017-Nov-08 10:29N 39°53' W 075°11'0 0.0
2017-Nov-08 09:59N 39°53' W 075°11'0 0.0
2017-Nov-08 09:29N 39°53' W 075°11'0 0.0
2017-Nov-08 08:59N 39°53' W 075°11'0 0.0
2017-Nov-08 08:29N 39°53' W 075°11'0 0.0
2017-Nov-08 07:56N 39°53' W 075°11'0 0.0
2017-Nov-08 07:29N 39°53' W 075°11'0 0.0
2017-Nov-08 06:59N 39°53' W 075°11'0 0.0
2017-Nov-08 06:29N 39°53' W 075°11'0 0.0
2017-Nov-08 05:59N 39°53' W 075°11'0 0.0
2017-Nov-08 05:29N 39°53' W 075°11'0 0.0
2017-Nov-08 04:59N 39°53' W 075°11'0 0.0
2017-Nov-08 04:29N 39°53' W 075°11'0 0.0
2017-Nov-08 03:59N 39°53' W 075°11'0 0.0
2017-Nov-08 03:29N 39°53' W 075°11'0 0.0
2017-Nov-08 02:59N 39°53' W 075°11'0 0.0
2017-Nov-08 02:29N 39°53' W 075°11'0 0.0
2017-Nov-08 01:59N 39°53' W 075°11'0 0.0
2017-Nov-08 01:29N 39°53' W 075°11'0 0.0
2017-Nov-08 00:59N 39°53' W 075°11'0 0.0
2017-Nov-08 00:29N 39°53' W 075°11'0 0.0
2017-Nov-07 23:59N 39°53' W 075°11'0 0.0
2017-Nov-07 23:29N 39°53' W 075°11'0 0.0
2017-Nov-07 22:59N 39°53' W 075°11'0 0.0
2017-Nov-07 22:29N 39°53' W 075°11'0 0.0
2017-Nov-07 21:59N 39°53' W 075°11'0 0.0
2017-Nov-07 21:29N 39°53' W 075°11'0 0.0
2017-Nov-07 20:59N 39°53' W 075°11'0 0.0
2017-Nov-07 20:29N 39°53' W 075°11'0 0.0
2017-Nov-07 19:59N 39°53' W 075°11'0 0.0
2017-Nov-07 19:29N 39°53' W 075°11'0 0.0
2017-Nov-07 18:59N 39°53' W 075°11'0 0.0
2017-Nov-07 18:29N 39°53' W 075°11'  

Dump ship's entire track history